Wednesday, May 23, 2018, 1:10 AM EDT
Back to Local

KNHK, Nas Patuxent River Md

Location: Patuxent River, MD, United States Lat: 38.3
Local Time: 1:10 AM EDT ( 5:10 GMT) Lon: -76.4
Time Zone: US/Eastern Elev: 39 ft

Show me the last for .
Show Decoded

2018-05-23 00:52 METAR KNHK 230452Z AUTO 23013KT 10SM FEW090 SCT110 23/19 A2996 RMK AO2 SLP147
                 T02280194 402890200 =
2018-05-22 23:52 METAR KNHK 230352Z AUTO 22010KT 10SM BKN120 22/19 A3000 RMK AO2 TSE06 SLP157
                 T02170189 =
2018-05-22 23:12 METAR KNHK 230312Z AUTO 19006KT 10SM SCT044 22/19 A3001 RMK AO2 TSE06 T02170194
                 =
2018-05-22 22:52 METAR KNHK 230252Z 19005KT 10SM TS FEW030CB SCT045 BKN100 BKN200 21/19 A3001 RMK
                 AO2 TSB32E33B39 SLP161 OCNL LTGIC DSNT SW TS DSNT SW MOV E T2 SET 60000
                 T02110194 57003 =
2018-05-22 22:41 METAR KNHK 230241Z 17004KT 10SM TS FEW030CB SCT045 BKN100 BKN200 21/19 A3000 RMK
                 AO2 TSB32E33B39 OCNL LTGIC DSNT SW TS DSNT SW MOV E T2 SET T02110189 =
2018-05-22 21:52 METAR KNHK 230152Z 19006KT 10SM SCT040 BKN100 BKN200 22/19 A3002 RMK AO2 SLP165
                 T02170189 =
2018-05-22 20:52 METAR KNHK 230052Z 20006KT 10SM FEW030 BKN100 BKN200 21/19 A3000 RMK AO2 RAE10
                 TSE24 SLP160 OCNL LTGIC DSNT E CB DSNT E SVR T2 SET P0000 T02110189 =
2018-05-22 20:30 METAR KNHK 230030Z 19005KT 10SM FEW030 BKN100 BKN200 21/19 A3000 RMK AO2 RAE10
                 TSE24 OCNL LTGIC DSNT E CB DSNT E SVR T1 SET P0000 T02110189 =
2018-05-22 19:52 METAR KNHK 222352Z 07004KT 5SM -TSRA FEW009 SCT021CB BKN030 21/18 A3002 RMK AO2
                 PK WND 33029/2316 RAB14 SLP164 FRQ LTGICCCCG OHD TS OHD MOV E SVR T1 SET P0035
                 60035 T02110183 10289 20206 53011 =
2018-05-22 19:22 METAR KNHK 222322Z 35013G29KT 1/2SM +TSRA FEW009 BKN020CB OVC030 22/19 A3001 RMK
                 AO2 PK WND 33029/2316 RAB14 FRQ LTGICCCCG OHD TS OHD MOV E SVR T1 SET P0022
                 T02170189 =
2018-05-22 18:52 METAR KNHK 222252Z 16003KT 7SM TS FEW020CB SCT030 BKN100 BKN200 24/21 A2999 RMK
                 AO2 SLP156 OCNL LTGIC DSNT W TS DSNT W MOV E SVR T1 SET T02390211 =
2018-05-22 17:52 METAR KNHK 222152Z 14009KT 7SM FEW030 BKN100 BKN200 24/21 A2998 RMK AO2 SLP153
                 SVR T2 SET T02390206 =
2018-05-22 16:52 METAR KNHK 222052Z 13008KT 9SM SCT030 BKN100 BKN200 25/21 A2998 RMK AO2 SLP153
                 SVR T2 SET T02500211 56020 =
2018-05-22 16:07 METAR KNHK 222007Z 14009KT 10SM FEW024 SCT031 BKN100 BKN200 26/21 A2998 RMK AO2
                 SVR T2 SET T02560211 =
2018-05-22 15:52 METAR KNHK 221952Z 13008KT 10SM BKN025 BKN032 BKN100 27/21 A2999 RMK AO2 SLP155
                 SVR T2 SET T02670211 =
2018-05-22 14:52 METAR KNHK 221852Z 20007KT 10SM BKN025 BKN100 BKN200 27/21 A3001 RMK AO2 SLP164
                 T02720206 =
2018-05-22 13:52 METAR KNHK 221752Z 20006KT 10SM SCT021 SCT100 BKN200 27/20 A3004 RMK AO2 SLP173
                 60000 T02670200 10267 20217 58020 =
2018-05-22 12:52 METAR KNHK 221652Z 19007KT 10SM BKN017 OVC042 26/20 A3008 RMK AO2 SLP186
                 T02560200 =
2018-05-22 12:29 METAR KNHK 221629Z 20006KT 10SM BKN017 OVC042 25/19 A3009 RMK AO2 T02500194 =
2018-05-22 11:52 METAR KNHK 221552Z 13007KT 10SM SCT017 BKN055 24/19 A3010 RMK AO2 RAB08E35
                 SLP193 P0000 T02390189 =
2018-05-22 10:52 METAR KNHK 221452Z 14004KT 10SM SCT015 BKN040 23/18 A3010 RMK AO2 SLP193
                 T02330178 58008 =
2018-05-22 09:52 METAR KNHK 221352Z 15005KT 10SM FEW017 OVC027 22/17 A3012 RMK AO2 SLP198
                 T02220167 $ =
2018-05-22 08:52 METAR KNHK 221252Z 15008KT 10SM OVC025 22/16 A3012 RMK AO2 SLP200 T02170161
                 VISNO RY24 $ =
2018-05-22 07:52 METAR KNHK 221152Z 15006KT 10SM OVC027 22/14 A3012 RMK AO2 SLP201 T02170144
                 10217 20200 53002 =
2018-05-22 06:52 METAR KNHK 221052Z 16005KT 10SM BKN027 OVC040 21/13 A3012 RMK AO2 SLP200
                 T02110133 =
2018-05-22 05:52 METAR KNHK 220952Z 16004KT 10SM BKN028 OVC040 21/14 A3011 RMK AO2 SLP197
                 T02110144 =
2018-05-22 05:30 METAR KNHK 220930Z AUTO 17005KT 10SM BKN027 OVC039 21/15 A3011 RMK AO2 T02110150
                 =
2018-05-22 04:52 METAR KNHK 220852Z AUTO 00000KT 10SM OVC039 20/16 A3012 RMK AO2 SLP198 T02000156
                 55007 =
2018-05-22 03:52 METAR KNHK 220752Z AUTO 16005KT 10SM BKN041 21/15 A3012 RMK AO2 SLP198 T02060150
                 =
2018-05-22 02:52 METAR KNHK 220652Z AUTO 00000KT 10SM FEW050 BKN070 20/14 A3013 RMK AO2 SLP202
                 T02000144 =
2018-05-22 01:52 METAR KNHK 220552Z AUTO 17003KT 10SM BKN060 21/15 A3014 RMK AO2 SLP206 T02060150
                 10217 20194 56009 =

Support USWX by starting your Amazon purchase here.